Barnett, Illinois
Current Conditions -  °F | °C
As of 10:15 AM on Monday 22 Dec 2014 (Local Time) from K3LF Reporting Station
Light Rain Light Rain  
Wind Chill: 30°   Ceiling: 600
Heat Index: 39°   Visibility: 2.5mi
Dew Point: 37°   Wind: 17mph
Humidity: 93%   Direction: 120°ESE
Pressure: 29.73"   Gusts: NA
Location:  39.1865°N, 89.679°W
Report Text: K3LF 221615Z AUTO 12015KT 2 1/2SM -RA OVC006 04/03 A2973 RMK AO2 P0002 T00400030
Loading
Personal Weather Stations






























Interactive Weather Map New forecast layout! Learn more

10-Day Weather Forecast

Advertisements
Track Severe Weather on mobile